Flight Track Log - Related Links

Times and Time Zones

All times are in EDT time to prevent confusion due to time zone crossing. See the N5051S flight status page for this flight to view local times or setup timezone preferences in your user account.

Time Position Orientation Groundspeed Altitude Reporting Facility
EDT Latitude Longitude Course Direction KTS MPH feet Rate Location/Type
Thu 06:06:03 PM 44.7683 -68.8700 237° Southwest 92 106 3,200  Level Boston Center
Thu 06:07:05 PM 44.7517 -68.9008 233° Southwest 94 108 4,000 823 Climbing Boston Center
Thu 06:08:07 PM 44.7358 -68.9308 233° Southwest 94 108 4,900 871 Climbing Boston Center
Thu 06:09:00 PM 44.6920 -69.0369 227° Southwest  Level FlightAware Approximate
Thu 06:09:09 PM 44.7203 -68.9628 236° Southwest 98 113 5,800  Level Boston Center
Thu 06:10:00 PM 44.6724 -69.0719 235° Southwest  Level FlightAware Approximate
Thu 06:10:11 PM 44.7044 -68.9989 238° Southwest 103 119 6,100  Level Boston Center
Thu 06:11:13 PM 44.6831 -69.0408 234° Southwest 124 143 6,100  Level Boston Center
Thu 06:12:15 PM 44.6617 -69.0828 234° Southwest 130 150 6,100  Level Boston Center
Thu 06:13:17 PM 44.6372 -69.1339 236° Southwest 130 150 6,100  Level Boston Center
Thu 06:14:19 PM 44.6181 -69.1736 236° Southwest 128 147 6,100  Level Boston Center
Thu 06:15:21 PM 44.5967 -69.2128 233° Southwest 127 146 6,100  Level Boston Center
Thu 06:16:23 PM 44.5767 -69.2556 237° Southwest 127 146 6,100  Level Boston Center
Thu 06:17:26 PM 44.5567 -69.2950 235° Southwest 127 146 6,100  Level Boston Center
Thu 06:18:28 PM 44.5367 -69.3350 235° Southwest 127 146 6,100  Level Boston Center
Thu 06:19:30 PM 44.5167 -69.3747 235° Southwest 127 146 6,100 -48 Level Boston Center
Thu 06:20:32 PM 44.4967 -69.4161 236° Southwest 127 146 6,000 -194 Descending Boston Center
Thu 06:21:34 PM 44.4703 -69.4642 232° Southwest 127 146 5,700 -484 Descending Boston Center
Thu 06:22:36 PM 44.4506 -69.5069 237° Southwest 128 147 5,000 -726 Descending Boston Center
Thu 06:23:38 PM 44.4272 -69.5486 232° Southwest 130 150 4,200 -726 Descending Boston Center
Thu 06:24:40 PM 44.4058 -69.5911 235° Southwest 131 151 3,500 -532 Descending Boston Center
Thu 06:25:42 PM 44.3839 -69.6336 234° Southwest 132 152 3,100 -242 Descending Boston Center
Thu 06:26:44 PM 44.3578 -69.6839 234° Southwest 132 152 3,000 -48 Descending Boston Center
Thu 06:27:47 PM 44.3358 -69.7275 235° Southwest 134 154 3,000  Level Boston Center
Thu 06:28:49 PM 44.3136 -69.7700 234° Southwest 134 154 3,000  Level Boston Center
Thu 06:29:51 PM 44.2908 -69.8156 235° Southwest 134 154 3,000  Level Boston Center
Thu 06:30:53 PM 44.2683 -69.8564 232° Southwest 134 154 3,000  Level Boston Center
Thu 06:31:55 PM 44.2458 -69.9019 235° Southwest 134 154 3,000  Level Boston Center
Thu 06:32:57 PM 44.2244 -69.9433 234° Southwest 133 153 3,000  Level Boston Center
Thu 06:33:59 PM 44.2014 -69.9867 233° Southwest 132 152 3,000  Level Boston Center
Thu 06:35:01 PM 44.1811 -70.0264 235° Southwest 130 150 3,000 -145 Level Boston Center
Thu 06:36:03 PM 44.1592 -70.0694 235° Southwest 128 147 2,700 -242 Descending Boston Center
Thu 06:37:05 PM 44.1381 -70.1097 234° Southwest 128 147 2,500 -145 Descending Boston Center
Thu 06:38:07 PM 44.1183 -70.1489 235° Southwest 128 147 2,400 -97 Descending Boston Center

Login

Don't have an account? Register now (free) for customized features, flight alerts, and more!